sensor_id;sensor_type;location;lat;lon;timestamp;temperature;humidity
67557;DHT22;54387;53.526;49.300;2022-10-30T00:01:40;4.40;73.40
67557;DHT22;54387;53.526;49.300;2022-10-30T00:04:08;4.40;73.40
67557;DHT22;54387;53.526;49.300;2022-10-30T00:06:34;4.40;73.50
67557;DHT22;54387;53.526;49.300;2022-10-30T00:09:00;4.50;73.40
67557;DHT22;54387;53.526;49.300;2022-10-30T00:11:26;4.40;73.30
67557;DHT22;54387;53.526;49.300;2022-10-30T00:13:54;4.40;73.30
67557;DHT22;54387;53.526;49.300;2022-10-30T00:16:20;4.40;73.40
67557;DHT22;54387;53.526;49.300;2022-10-30T00:18:46;4.30;73.30
67557;DHT22;54387;53.526;49.300;2022-10-30T00:21:12;4.30;73.40
67557;DHT22;54387;53.526;49.300;2022-10-30T00:23:43;4.30;73.50
67557;DHT22;54387;53.526;49.300;2022-10-30T00:26:09;4.30;73.60
67557;DHT22;54387;53.526;49.300;2022-10-30T00:28:35;4.30;73.50
67557;DHT22;54387;53.526;49.300;2022-10-30T00:31:02;4.30;73.50
67557;DHT22;54387;53.526;49.300;2022-10-30T00:33:28;4.30;73.60
67557;DHT22;54387;53.526;49.300;2022-10-30T00:35:54;4.30;73.50
67557;DHT22;54387;53.526;49.300;2022-10-30T00:38:20;4.30;73.50
67557;DHT22;54387;53.526;49.300;2022-10-30T00:40:46;4.30;73.40
67557;DHT22;54387;53.526;49.300;2022-10-30T00:46:12;4.30;73.50
67557;DHT22;54387;53.526;49.300;2022-10-30T00:48:39;4.30;73.50
67557;DHT22;54387;53.526;49.300;2022-10-30T00:51:07;4.30;73.50
67557;DHT22;54387;53.526;49.300;2022-10-30T00:53:34;4.30;73.50
67557;DHT22;54387;53.526;49.300;2022-10-30T00:56:01;4.40;73.50
67557;DHT22;54387;53.526;49.300;2022-10-30T00:58:31;4.40;73.30
67557;DHT22;54387;53.526;49.300;2022-10-30T01:00:58;4.40;73.20
67557;DHT22;54387;53.526;49.300;2022-10-30T01:03:25;4.40;73.10
67557;DHT22;54387;53.526;49.300;2022-10-30T01:05:54;4.40;73.10
67557;DHT22;54387;53.526;49.300;2022-10-30T01:08:21;4.30;73.00
67557;DHT22;54387;53.526;49.300;2022-10-30T01:10:48;4.30;73.10
67557;DHT22;54387;53.526;49.300;2022-10-30T01:13:14;4.30;73.10
67557;DHT22;54387;53.526;49.300;2022-10-30T01:15:44;4.30;73.00
67557;DHT22;54387;53.526;49.300;2022-10-30T01:23:18;4.40;73.10
67557;DHT22;54387;53.526;49.300;2022-10-30T01:25:52;4.40;73.10
67557;DHT22;54387;53.526;49.300;2022-10-30T01:28:32;4.40;72.90
67557;DHT22;54387;53.526;49.300;2022-10-30T01:31:02;4.40;72.90
67557;DHT22;54387;53.526;49.300;2022-10-30T01:33:42;4.40;72.80
67557;DHT22;54387;53.526;49.300;2022-10-30T01:38:51;4.50;72.80
67557;DHT22;54387;53.526;49.300;2022-10-30T01:41:18;4.50;72.80
67557;DHT22;54387;53.526;49.300;2022-10-30T01:43:45;4.50;72.70
67557;DHT22;54387;53.526;49.300;2022-10-30T01:49:12;4.50;72.70
67557;DHT22;54387;53.526;49.300;2022-10-30T01:54:18;4.50;72.60
67557;DHT22;54387;53.526;49.300;2022-10-30T01:59:25;4.40;72.40
67557;DHT22;54387;53.526;49.300;2022-10-30T02:01:54;4.40;72.50
67557;DHT22;54387;53.526;49.300;2022-10-30T02:04:20;4.40;72.50
67557;DHT22;54387;53.526;49.300;2022-10-30T02:06:47;4.40;72.50
67557;DHT22;54387;53.526;49.300;2022-10-30T02:09:16;4.40;72.40
67557;DHT22;54387;53.526;49.300;2022-10-30T02:11:43;4.40;72.50
67557;DHT22;54387;53.526;49.300;2022-10-30T02:14:10;4.40;72.60
67557;DHT22;54387;53.526;49.300;2022-10-30T02:16:38;4.40;72.60
67557;DHT22;54387;53.526;49.300;2022-10-30T02:19:06;4.40;72.50
67557;DHT22;54387;53.526;49.300;2022-10-30T02:21:32;4.40;72.60
67557;DHT22;54387;53.526;49.300;2022-10-30T02:23:59;4.40;72.60
67557;DHT22;54387;53.526;49.300;2022-10-30T02:26:25;4.50;72.50
67557;DHT22;54387;53.526;49.300;2022-10-30T02:28:51;4.50;72.30
67557;DHT22;54387;53.526;49.300;2022-10-30T02:31:17;4.40;72.20
67557;DHT22;54387;53.526;49.300;2022-10-30T02:33:47;4.50;72.20
67557;DHT22;54387;53.526;49.300;2022-10-30T02:36:13;4.40;72.10
67557;DHT22;54387;53.526;49.300;2022-10-30T02:38:42;4.40;72.10
67557;DHT22;54387;53.526;49.300;2022-10-30T02:41:09;4.40;72.10
67557;DHT22;54387;53.526;49.300;2022-10-30T02:43:35;4.40;72.20
67557;DHT22;54387;53.526;49.300;2022-10-30T02:46:01;4.40;72.20
67557;DHT22;54387;53.526;49.300;2022-10-30T02:48:31;4.40;72.10
67557;DHT22;54387;53.526;49.300;2022-10-30T02:50:58;4.40;72.10
67557;DHT22;54387;53.526;49.300;2022-10-30T02:53:24;4.40;72.10
67557;DHT22;54387;53.526;49.300;2022-10-30T02:55:50;4.40;72.20
67557;DHT22;54387;53.526;49.300;2022-10-30T02:58:16;4.40;72.20
67557;DHT22;54387;53.526;49.300;2022-10-30T03:00:42;4.40;72.20
67557;DHT22;54387;53.526;49.300;2022-10-30T03:03:08;4.30;72.30
67557;DHT22;54387;53.526;49.300;2022-10-30T03:05:34;4.30;72.40
67557;DHT22;54387;53.526;49.300;2022-10-30T03:08:01;4.30;72.50
67557;DHT22;54387;53.526;49.300;2022-10-30T03:10:27;4.30;72.50
67557;DHT22;54387;53.526;49.300;2022-10-30T03:12:53;4.30;72.60
67557;DHT22;54387;53.526;49.300;2022-10-30T03:15:19;4.30;72.70
67557;DHT22;54387;53.526;49.300;2022-10-30T03:17:45;4.30;72.70
67557;DHT22;54387;53.526;49.300;2022-10-30T03:20:11;4.30;72.70
67557;DHT22;54387;53.526;49.300;2022-10-30T03:22:37;4.30;72.70
67557;DHT22;54387;53.526;49.300;2022-10-30T03:25:03;4.30;72.70
67557;DHT22;54387;53.526;49.300;2022-10-30T03:27:29;4.30;72.70
67557;DHT22;54387;53.526;49.300;2022-10-30T03:29:56;4.30;72.70
67557;DHT22;54387;53.526;49.300;2022-10-30T03:32:22;4.30;72.70
67557;DHT22;54387;53.526;49.300;2022-10-30T03:34:48;4.30;72.80
67557;DHT22;54387;53.526;49.300;2022-10-30T03:37:14;4.30;72.60
67557;DHT22;54387;53.526;49.300;2022-10-30T03:39:40;4.20;72.50
67557;DHT22;54387;53.526;49.300;2022-10-30T03:42:06;4.20;72.80
67557;DHT22;54387;53.526;49.300;2022-10-30T03:44:32;4.20;72.80
67557;DHT22;54387;53.526;49.300;2022-10-30T03:46:58;4.20;72.70
67557;DHT22;54387;53.526;49.300;2022-10-30T03:49:24;4.20;72.80
67557;DHT22;54387;53.526;49.300;2022-10-30T03:51:50;4.30;72.80
67557;DHT22;54387;53.526;49.300;2022-10-30T03:54:16;4.30;72.80
67557;DHT22;54387;53.526;49.300;2022-10-30T03:56:43;4.30;72.90
67557;DHT22;54387;53.526;49.300;2022-10-30T03:59:09;4.30;72.80
67557;DHT22;54387;53.526;49.300;2022-10-30T04:01:36;4.30;72.80
67557;DHT22;54387;53.526;49.300;2022-10-30T04:04:02;4.40;72.70
67557;DHT22;54387;53.526;49.300;2022-10-30T04:06:29;4.40;72.70
67557;DHT22;54387;53.526;49.300;2022-10-30T04:08:55;4.40;72.70
67557;DHT22;54387;53.526;49.300;2022-10-30T04:11:21;4.40;72.60
67557;DHT22;54387;53.526;49.300;2022-10-30T04:13:47;4.40;72.60
67557;DHT22;54387;53.526;49.300;2022-10-30T04:16:13;4.40;72.60
67557;DHT22;54387;53.526;49.300;2022-10-30T04:18:40;4.50;72.50
67557;DHT22;54387;53.526;49.300;2022-10-30T04:21:06;4.50;72.50
67557;DHT22;54387;53.526;49.300;2022-10-30T04:23:32;4.40;72.20
67557;DHT22;54387;53.526;49.300;2022-10-30T04:25:59;4.40;72.20
67557;DHT22;54387;53.526;49.300;2022-10-30T04:28:25;4.50;72.40
67557;DHT22;54387;53.526;49.300;2022-10-30T04:30:51;4.50;72.40
67557;DHT22;54387;53.526;49.300;2022-10-30T04:33:18;4.50;72.30
67557;DHT22;54387;53.526;49.300;2022-10-30T04:35:45;4.50;72.30
67557;DHT22;54387;53.526;49.300;2022-10-30T04:38:12;4.50;72.30
67557;DHT22;54387;53.526;49.300;2022-10-30T04:40:40;4.50;72.30
67557;DHT22;54387;53.526;49.300;2022-10-30T04:43:07;4.50;72.40
67557;DHT22;54387;53.526;49.300;2022-10-30T04:45:34;4.60;72.40
67557;DHT22;54387;53.526;49.300;2022-10-30T04:48:08;4.60;72.30
67557;DHT22;54387;53.526;49.300;2022-10-30T04:50:35;4.70;72.20
67557;DHT22;54387;53.526;49.300;2022-10-30T04:53:01;4.70;72.10
67557;DHT22;54387;53.526;49.300;2022-10-30T04:55:28;4.70;72.00
67557;DHT22;54387;53.526;49.300;2022-10-30T04:57:55;4.70;72.00
67557;DHT22;54387;53.526;49.300;2022-10-30T05:00:22;4.70;71.90
67557;DHT22;54387;53.526;49.300;2022-10-30T05:02:48;4.70;72.00
67557;DHT22;54387;53.526;49.300;2022-10-30T05:05:14;4.70;71.90
67557;DHT22;54387;53.526;49.300;2022-10-30T05:07:40;4.60;71.90
67557;DHT22;54387;53.526;49.300;2022-10-30T05:10:10;4.60;72.10
67557;DHT22;54387;53.526;49.300;2022-10-30T05:12:36;4.50;72.10
67557;DHT22;54387;53.526;49.300;2022-10-30T05:15:02;4.50;72.10
67557;DHT22;54387;53.526;49.300;2022-10-30T05:17:29;4.50;72.20
67557;DHT22;54387;53.526;49.300;2022-10-30T05:19:55;4.40;72.30
67557;DHT22;54387;53.526;49.300;2022-10-30T05:22:21;4.40;72.60
67557;DHT22;54387;53.526;49.300;2022-10-30T05:24:47;4.40;72.40
67557;DHT22;54387;53.526;49.300;2022-10-30T05:27:14;4.40;73.00
67557;DHT22;54387;53.526;49.300;2022-10-30T05:29:40;4.40;72.50
67557;DHT22;54387;53.526;49.300;2022-10-30T05:32:06;4.40;72.60
67557;DHT22;54387;53.526;49.300;2022-10-30T05:34:32;4.30;72.50
67557;DHT22;54387;53.526;49.300;2022-10-30T05:36:58;4.30;72.80
67557;DHT22;54387;53.526;49.300;2022-10-30T05:39:26;4.20;72.90
67557;DHT22;54387;53.526;49.300;2022-10-30T05:41:52;4.20;73.00
67557;DHT22;54387;53.526;49.300;2022-10-30T05:44:18;4.30;73.30
67557;DHT22;54387;53.526;49.300;2022-10-30T05:46:44;4.30;73.40
67557;DHT22;54387;53.526;49.300;2022-10-30T05:49:10;4.30;73.30
67557;DHT22;54387;53.526;49.300;2022-10-30T05:51:36;4.30;73.20
67557;DHT22;54387;53.526;49.300;2022-10-30T05:54:02;4.40;73.20
67557;DHT22;54387;53.526;49.300;2022-10-30T05:56:29;4.30;73.10
67557;DHT22;54387;53.526;49.300;2022-10-30T05:58:55;4.30;73.10
67557;DHT22;54387;53.526;49.300;2022-10-30T06:01:21;4.30;73.10
67557;DHT22;54387;53.526;49.300;2022-10-30T06:03:47;4.30;72.90
67557;DHT22;54387;53.526;49.300;2022-10-30T06:06:13;4.30;73.00
67557;DHT22;54387;53.526;49.300;2022-10-30T06:08:39;4.30;73.10
67557;DHT22;54387;53.526;49.300;2022-10-30T06:11:05;4.30;72.90
67557;DHT22;54387;53.526;49.300;2022-10-30T06:13:31;4.30;72.80
67557;DHT22;54387;53.526;49.300;2022-10-30T06:15:57;4.20;72.80
67557;DHT22;54387;53.526;49.300;2022-10-30T06:18:23;4.20;73.10
67557;DHT22;54387;53.526;49.300;2022-10-30T06:20:49;4.20;73.10
67557;DHT22;54387;53.526;49.300;2022-10-30T06:23:15;4.20;73.20
67557;DHT22;54387;53.526;49.300;2022-10-30T06:25:41;4.20;73.20
67557;DHT22;54387;53.526;49.300;2022-10-30T06:28:10;4.20;73.20
67557;DHT22;54387;53.526;49.300;2022-10-30T06:30:38;4.20;73.20
67557;DHT22;54387;53.526;49.300;2022-10-30T06:33:04;4.30;73.40
67557;DHT22;54387;53.526;49.300;2022-10-30T06:35:30;4.30;73.40
67557;DHT22;54387;53.526;49.300;2022-10-30T06:37:57;4.30;73.50
67557;DHT22;54387;53.526;49.300;2022-10-30T06:40:25;4.30;73.50
67557;DHT22;54387;53.526;49.300;2022-10-30T06:42:51;4.30;73.60
67557;DHT22;54387;53.526;49.300;2022-10-30T06:45:18;4.40;73.60
67557;DHT22;54387;53.526;49.300;2022-10-30T06:47:45;4.40;73.50
67557;DHT22;54387;53.526;49.300;2022-10-30T06:50:12;4.40;73.50
67557;DHT22;54387;53.526;49.300;2022-10-30T06:52:38;4.40;73.60
67557;DHT22;54387;53.526;49.300;2022-10-30T06:55:04;4.40;73.60
67557;DHT22;54387;53.526;49.300;2022-10-30T06:57:31;4.40;73.50
67557;DHT22;54387;53.526;49.300;2022-10-30T06:59:57;4.40;73.30
67557;DHT22;54387;53.526;49.300;2022-10-30T07:02:23;4.50;73.30
67557;DHT22;54387;53.526;49.300;2022-10-30T07:04:49;4.40;73.30
67557;DHT22;54387;53.526;49.300;2022-10-30T07:07:15;4.40;73.40
67557;DHT22;54387;53.526;49.300;2022-10-30T07:09:41;4.40;73.50
67557;DHT22;54387;53.526;49.300;2022-10-30T07:12:10;4.50;73.60
67557;DHT22;54387;53.526;49.300;2022-10-30T07:14:36;4.50;73.60
67557;DHT22;54387;53.526;49.300;2022-10-30T07:17:02;4.50;73.60
67557;DHT22;54387;53.526;49.300;2022-10-30T07:19:28;4.60;73.80
67557;DHT22;54387;53.526;49.300;2022-10-30T07:21:54;4.60;73.60
67557;DHT22;54387;53.526;49.300;2022-10-30T07:24:20;4.60;73.60
67557;DHT22;54387;53.526;49.300;2022-10-30T07:26:46;4.60;73.60
67557;DHT22;54387;53.526;49.300;2022-10-30T07:29:12;4.60;73.90
67557;DHT22;54387;53.526;49.300;2022-10-30T07:31:38;4.60;74.10
67557;DHT22;54387;53.526;49.300;2022-10-30T07:34:04;4.60;74.10
67557;DHT22;54387;53.526;49.300;2022-10-30T07:36:30;4.60;74.30
67557;DHT22;54387;53.526;49.300;2022-10-30T07:38:56;4.60;74.50
67557;DHT22;54387;53.526;49.300;2022-10-30T07:41:22;4.60;74.50
67557;DHT22;54387;53.526;49.300;2022-10-30T07:43:49;4.70;74.50
67557;DHT22;54387;53.526;49.300;2022-10-30T07:46:15;4.70;74.50
67557;DHT22;54387;53.526;49.300;2022-10-30T07:48:41;4.70;74.60
67557;DHT22;54387;53.526;49.300;2022-10-30T07:51:07;4.70;74.60
67557;DHT22;54387;53.526;49.300;2022-10-30T07:53:33;4.60;74.90
67557;DHT22;54387;53.526;49.300;2022-10-30T07:55:59;4.60;74.90
67557;DHT22;54387;53.526;49.300;2022-10-30T07:58:26;4.60;75.10
67557;DHT22;54387;53.526;49.300;2022-10-30T08:00:52;4.70;75.20
67557;DHT22;54387;53.526;49.300;2022-10-30T08:03:18;4.70;75.30
67557;DHT22;54387;53.526;49.300;2022-10-30T08:05:44;4.70;75.20
67557;DHT22;54387;53.526;49.300;2022-10-30T08:08:10;4.70;75.10
67557;DHT22;54387;53.526;49.300;2022-10-30T08:10:36;4.70;75.20
67557;DHT22;54387;53.526;49.300;2022-10-30T08:13:02;4.80;75.20
67557;DHT22;54387;53.526;49.300;2022-10-30T08:15:28;4.80;75.20
67557;DHT22;54387;53.526;49.300;2022-10-30T08:17:54;4.80;75.20
67557;DHT22;54387;53.526;49.300;2022-10-30T08:20:21;4.80;75.30
67557;DHT22;54387;53.526;49.300;2022-10-30T08:22:48;4.90;75.20
67557;DHT22;54387;53.526;49.300;2022-10-30T08:25:15;4.90;75.10
67557;DHT22;54387;53.526;49.300;2022-10-30T08:27:51;5.00;75.30
67557;DHT22;54387;53.526;49.300;2022-10-30T08:30:18;5.00;75.00
67557;DHT22;54387;53.526;49.300;2022-10-30T08:32:45;5.00;74.80
67557;DHT22;54387;53.526;49.300;2022-10-30T08:35:11;5.10;74.60
67557;DHT22;54387;53.526;49.300;2022-10-30T08:37:37;5.10;74.80
67557;DHT22;54387;53.526;49.300;2022-10-30T08:40:03;5.10;74.70
67557;DHT22;54387;53.526;49.300;2022-10-30T08:42:29;5.20;74.50
67557;DHT22;54387;53.526;49.300;2022-10-30T08:44:55;5.10;74.60
67557;DHT22;54387;53.526;49.300;2022-10-30T08:47:21;5.20;74.40
67557;DHT22;54387;53.526;49.300;2022-10-30T08:49:47;5.20;74.30
67557;DHT22;54387;53.526;49.300;2022-10-30T08:52:13;5.20;74.20
67557;DHT22;54387;53.526;49.300;2022-10-30T08:54:39;5.20;74.10
67557;DHT22;54387;53.526;49.300;2022-10-30T08:57:05;5.20;74.00
67557;DHT22;54387;53.526;49.300;2022-10-30T08:59:31;5.20;74.00
67557;DHT22;54387;53.526;49.300;2022-10-30T09:01:58;5.10;74.00
67557;DHT22;54387;53.526;49.300;2022-10-30T09:04:24;5.10;74.20
67557;DHT22;54387;53.526;49.300;2022-10-30T09:06:50;5.10;74.40
67557;DHT22;54387;53.526;49.300;2022-10-30T09:09:16;5.20;74.50
67557;DHT22;54387;53.526;49.300;2022-10-30T09:11:42;5.20;74.70
67557;DHT22;54387;53.526;49.300;2022-10-30T09:14:08;5.30;74.50
67557;DHT22;54387;53.526;49.300;2022-10-30T09:16:34;5.30;74.50
67557;DHT22;54387;53.526;49.300;2022-10-30T09:19:00;5.30;74.50
67557;DHT22;54387;53.526;49.300;2022-10-30T09:21:26;5.30;74.50
67557;DHT22;54387;53.526;49.300;2022-10-30T09:23:52;5.30;74.60
67557;DHT22;54387;53.526;49.300;2022-10-30T09:26:18;5.30;74.70
67557;DHT22;54387;53.526;49.300;2022-10-30T09:28:44;5.40;74.60
67557;DHT22;54387;53.526;49.300;2022-10-30T09:31:10;5.40;74.50
67557;DHT22;54387;53.526;49.300;2022-10-30T09:33:37;5.40;74.70
67557;DHT22;54387;53.526;49.300;2022-10-30T09:36:03;5.40;74.70
67557;DHT22;54387;53.526;49.300;2022-10-30T09:38:29;5.40;74.60
67557;DHT22;54387;53.526;49.300;2022-10-30T09:41:00;5.40;74.60
67557;DHT22;54387;53.526;49.300;2022-10-30T09:43:38;5.40;74.70
67557;DHT22;54387;53.526;49.300;2022-10-30T09:46:15;5.40;74.90
67557;DHT22;54387;53.526;49.300;2022-10-30T09:48:48;5.50;74.80
67557;DHT22;54387;53.526;49.300;2022-10-30T09:56:23;5.50;74.70
67557;DHT22;54387;53.526;49.300;2022-10-30T10:01:33;5.50;74.90
67557;DHT22;54387;53.526;49.300;2022-10-30T10:04:07;5.50;75.00
67557;DHT22;54387;53.526;49.300;2022-10-30T10:06:38;5.60;75.10
67557;DHT22;54387;53.526;49.300;2022-10-30T10:09:06;5.60;75.00
67557;DHT22;54387;53.526;49.300;2022-10-30T10:11:35;5.60;75.00
67557;DHT22;54387;53.526;49.300;2022-10-30T10:14:19;5.60;75.10
67557;DHT22;54387;53.526;49.300;2022-10-30T10:16:47;5.60;75.10
67557;DHT22;54387;53.526;49.300;2022-10-30T10:19:21;5.60;75.30
67557;DHT22;54387;53.526;49.300;2022-10-30T10:21:58;5.60;75.30
67557;DHT22;54387;53.526;49.300;2022-10-30T10:24:28;5.70;75.40
67557;DHT22;54387;53.526;49.300;2022-10-30T10:29:41;5.70;75.30
67557;DHT22;54387;53.526;49.300;2022-10-30T10:39:52;5.70;75.50
67557;DHT22;54387;53.526;49.300;2022-10-30T10:50:17;5.80;75.80
67557;DHT22;54387;53.526;49.300;2022-10-30T10:52:49;5.80;75.80
67557;DHT22;54387;53.526;49.300;2022-10-30T10:55:18;5.80;75.90
67557;DHT22;54387;53.526;49.300;2022-10-30T10:57:46;5.80;76.40
67557;DHT22;54387;53.526;49.300;2022-10-30T11:00:13;5.80;75.90
67557;DHT22;54387;53.526;49.300;2022-10-30T11:03:00;5.80;76.00
67557;DHT22;54387;53.526;49.300;2022-10-30T11:05:36;5.80;75.80
67557;DHT22;54387;53.526;49.300;2022-10-30T11:10:43;5.80;75.80
67557;DHT22;54387;53.526;49.300;2022-10-30T11:13:13;5.80;75.80
67557;DHT22;54387;53.526;49.300;2022-10-30T11:15:46;5.80;75.90
67557;DHT22;54387;53.526;49.300;2022-10-30T11:18:15;5.80;76.10
67557;DHT22;54387;53.526;49.300;2022-10-30T11:20:54;5.80;76.00
67557;DHT22;54387;53.526;49.300;2022-10-30T11:33:45;5.80;76.10
67557;DHT22;54387;53.526;49.300;2022-10-30T11:36:13;5.90;76.20
67557;DHT22;54387;53.526;49.300;2022-10-30T11:38:39;5.80;76.20
67557;DHT22;54387;53.526;49.300;2022-10-30T11:41:10;5.90;76.30
67557;DHT22;54387;53.526;49.300;2022-10-30T11:43:37;5.90;76.30
67557;DHT22;54387;53.526;49.300;2022-10-30T11:46:05;5.90;76.30
67557;DHT22;54387;53.526;49.300;2022-10-30T11:48:35;5.90;76.40
67557;DHT22;54387;53.526;49.300;2022-10-30T11:51:02;6.00;76.30
67557;DHT22;54387;53.526;49.300;2022-10-30T11:53:36;6.00;76.30
67557;DHT22;54387;53.526;49.300;2022-10-30T11:56:14;6.00;76.20
67557;DHT22;54387;53.526;49.300;2022-10-30T11:58:47;6.00;76.20
67557;DHT22;54387;53.526;49.300;2022-10-30T12:01:24;6.00;76.20
67557;DHT22;54387;53.526;49.300;2022-10-30T12:03:52;6.00;76.30
67557;DHT22;54387;53.526;49.300;2022-10-30T12:11:32;6.00;76.30
67557;DHT22;54387;53.526;49.300;2022-10-30T12:13:59;6.00;76.40
67557;DHT22;54387;53.526;49.300;2022-10-30T12:16:25;6.10;76.60
67557;DHT22;54387;53.526;49.300;2022-10-30T12:19:01;6.10;76.70
67557;DHT22;54387;53.526;49.300;2022-10-30T12:21:38;6.10;76.70
67557;DHT22;54387;53.526;49.300;2022-10-30T12:24:05;6.10;76.80
67557;DHT22;54387;53.526;49.300;2022-10-30T12:26:37;6.10;76.80
67557;DHT22;54387;53.526;49.300;2022-10-30T12:29:05;6.10;76.70
67557;DHT22;54387;53.526;49.300;2022-10-30T12:31:37;6.10;76.70
67557;DHT22;54387;53.526;49.300;2022-10-30T12:36:34;6.20;77.00
67557;DHT22;54387;53.526;49.300;2022-10-30T12:39:03;6.20;77.00
67557;DHT22;54387;53.526;49.300;2022-10-30T12:41:38;6.20;77.10
67557;DHT22;54387;53.526;49.300;2022-10-30T12:46:53;6.30;77.20
67557;DHT22;54387;53.526;49.300;2022-10-30T12:49:22;6.40;77.00
67557;DHT22;54387;53.526;49.300;2022-10-30T12:51:55;6.40;76.80
67557;DHT22;54387;53.526;49.300;2022-10-30T12:57:07;6.40;77.00
67557;DHT22;54387;53.526;49.300;2022-10-30T13:04:43;6.50;77.00
67557;DHT22;54387;53.526;49.300;2022-10-30T13:07:15;6.50;77.00
67557;DHT22;54387;53.526;49.300;2022-10-30T13:09:47;6.50;77.00
67557;DHT22;54387;53.526;49.300;2022-10-30T13:12:21;6.60;77.10
67557;DHT22;54387;53.526;49.300;2022-10-30T13:14:57;6.60;77.10
67557;DHT22;54387;53.526;49.300;2022-10-30T13:17:26;6.60;77.10
67557;DHT22;54387;53.526;49.300;2022-10-30T13:19:53;6.70;77.00
67557;DHT22;54387;53.526;49.300;2022-10-30T13:25:12;6.70;77.10
67557;DHT22;54387;53.526;49.300;2022-10-30T13:30:14;6.70;77.20
67557;DHT22;54387;53.526;49.300;2022-10-30T13:37:48;6.80;77.60
67557;DHT22;54387;53.526;49.300;2022-10-30T13:47:48;6.90;77.80
67557;DHT22;54387;53.526;49.300;2022-10-30T13:50:36;6.90;77.90
67557;DHT22;54387;53.526;49.300;2022-10-30T13:53:04;6.90;77.80
67557;DHT22;54387;53.526;49.300;2022-10-30T13:55:32;7.00;78.00
67557;DHT22;54387;53.526;49.300;2022-10-30T13:58:00;7.00;77.90
67557;DHT22;54387;53.526;49.300;2022-10-30T14:00:33;7.00;77.90
67557;DHT22;54387;53.526;49.300;2022-10-30T14:08:39;7.20;78.50
67557;DHT22;54387;53.526;49.300;2022-10-30T14:11:06;7.20;77.80
67557;DHT22;54387;53.526;49.300;2022-10-30T14:13:47;7.30;77.80
67557;DHT22;54387;53.526;49.300;2022-10-30T14:16:34;7.30;77.70
67557;DHT22;54387;53.526;49.300;2022-10-30T14:19:04;7.30;77.60
67557;DHT22;54387;53.526;49.300;2022-10-30T14:26:38;7.40;77.70
67557;DHT22;54387;53.526;49.300;2022-10-30T14:34:43;7.70;77.70
67557;DHT22;54387;53.526;49.300;2022-10-30T14:37:10;7.70;77.60
67557;DHT22;54387;53.526;49.300;2022-10-30T14:39:43;7.80;77.50
67557;DHT22;54387;53.526;49.300;2022-10-30T14:42:19;7.80;77.30
67557;DHT22;54387;53.526;49.300;2022-10-30T14:44:50;7.80;77.20
67557;DHT22;54387;53.526;49.300;2022-10-30T14:47:42;7.80;77.20
67557;DHT22;54387;53.526;49.300;2022-10-30T14:52:44;7.90;77.10
67557;DHT22;54387;53.526;49.300;2022-10-30T14:55:29;7.90;76.90
67557;DHT22;54387;53.526;49.300;2022-10-30T15:11:12;8.00;76.80
67557;DHT22;54387;53.526;49.300;2022-10-30T15:13:45;8.00;76.80
67557;DHT22;54387;53.526;49.300;2022-10-30T15:16:12;8.10;76.70
67557;DHT22;54387;53.526;49.300;2022-10-30T15:18:39;8.10;76.70
67557;DHT22;54387;53.526;49.300;2022-10-30T15:21:06;8.10;76.80
67557;DHT22;54387;53.526;49.300;2022-10-30T15:23:33;8.10;76.80
67557;DHT22;54387;53.526;49.300;2022-10-30T15:26:01;8.20;76.80
67557;DHT22;54387;53.526;49.300;2022-10-30T15:28:29;8.20;76.80
67557;DHT22;54387;53.526;49.300;2022-10-30T15:31:00;8.20;76.60
67557;DHT22;54387;53.526;49.300;2022-10-30T15:33:26;8.30;76.60
67557;DHT22;54387;53.526;49.300;2022-10-30T15:35:53;8.30;76.60
67557;DHT22;54387;53.526;49.300;2022-10-30T15:38:19;8.30;76.60
67557;DHT22;54387;53.526;49.300;2022-10-30T15:40:45;8.30;76.40
67557;DHT22;54387;53.526;49.300;2022-10-30T15:43:11;8.30;76.40
67557;DHT22;54387;53.526;49.300;2022-10-30T15:45:39;8.40;76.40
67557;DHT22;54387;53.526;49.300;2022-10-30T15:50:32;8.40;76.20
67557;DHT22;54387;53.526;49.300;2022-10-30T15:52:59;8.40;76.20
67557;DHT22;54387;53.526;49.300;2022-10-30T15:55:27;8.40;76.20
67557;DHT22;54387;53.526;49.300;2022-10-30T15:57:54;8.50;76.30
67557;DHT22;54387;53.526;49.300;2022-10-30T16:02:57;8.50;76.20
67557;DHT22;54387;53.526;49.300;2022-10-30T16:05:23;8.50;76.20
67557;DHT22;54387;53.526;49.300;2022-10-30T16:07:49;8.50;76.20
67557;DHT22;54387;53.526;49.300;2022-10-30T16:10:16;8.50;76.20
67557;DHT22;54387;53.526;49.300;2022-10-30T16:12:42;8.50;76.20
67557;DHT22;54387;53.526;49.300;2022-10-30T16:15:24;8.50;76.20
67557;DHT22;54387;53.526;49.300;2022-10-30T16:18:03;8.50;76.20
67557;DHT22;54387;53.526;49.300;2022-10-30T16:20:31;8.40;76.30
67557;DHT22;54387;53.526;49.300;2022-10-30T16:22:57;8.40;76.40
67557;DHT22;54387;53.526;49.300;2022-10-30T16:25:24;8.40;76.60
67557;DHT22;54387;53.526;49.300;2022-10-30T16:27:50;8.50;76.70
67557;DHT22;54387;53.526;49.300;2022-10-30T16:30:16;8.50;76.60
67557;DHT22;54387;53.526;49.300;2022-10-30T16:32:49;8.50;76.60
67557;DHT22;54387;53.526;49.300;2022-10-30T16:35:18;8.60;76.70
67557;DHT22;54387;53.526;49.300;2022-10-30T16:37:45;8.60;76.60
67557;DHT22;54387;53.526;49.300;2022-10-30T16:40:15;8.60;76.60
67557;DHT22;54387;53.526;49.300;2022-10-30T16:42:47;8.60;76.70
67557;DHT22;54387;53.526;49.300;2022-10-30T16:47:46;8.60;76.70
67557;DHT22;54387;53.526;49.300;2022-10-30T16:50:17;8.70;76.80
67557;DHT22;54387;53.526;49.300;2022-10-30T16:52:45;8.70;76.80
67557;DHT22;54387;53.526;49.300;2022-10-30T16:55:20;8.70;76.80
67557;DHT22;54387;53.526;49.300;2022-10-30T16:57:48;8.70;76.80
67557;DHT22;54387;53.526;49.300;2022-10-30T17:00:25;8.80;76.90
67557;DHT22;54387;53.526;49.300;2022-10-30T17:02:51;8.80;76.80
67557;DHT22;54387;53.526;49.300;2022-10-30T17:05:19;8.80;76.80
67557;DHT22;54387;53.526;49.300;2022-10-30T17:07:58;8.80;76.80
67557;DHT22;54387;53.526;49.300;2022-10-30T17:10:41;8.80;76.70
67557;DHT22;54387;53.526;49.300;2022-10-30T17:15:52;8.90;76.80
67557;DHT22;54387;53.526;49.300;2022-10-30T17:18:18;9.00;76.90
67557;DHT22;54387;53.526;49.300;2022-10-30T17:20:56;9.00;76.90
67557;DHT22;54387;53.526;49.300;2022-10-30T17:23:23;9.10;76.80
67557;DHT22;54387;53.526;49.300;2022-10-30T17:25:49;9.10;76.70
67557;DHT22;54387;53.526;49.300;2022-10-30T17:28:25;9.10;76.50
67557;DHT22;54387;53.526;49.300;2022-10-30T17:30:52;9.10;76.40
67557;DHT22;54387;53.526;49.300;2022-10-30T17:33:34;9.10;76.40
67557;DHT22;54387;53.526;49.300;2022-10-30T17:36:01;9.10;76.50
67557;DHT22;54387;53.526;49.300;2022-10-30T17:38:32;9.10;76.50
67557;DHT22;54387;53.526;49.300;2022-10-30T17:40:59;9.10;76.50
67557;DHT22;54387;53.526;49.300;2022-10-30T17:43:27;9.10;76.60
67557;DHT22;54387;53.526;49.300;2022-10-30T17:45:53;9.10;76.40
67557;DHT22;54387;53.526;49.300;2022-10-30T17:48:20;9.10;76.30
67557;DHT22;54387;53.526;49.300;2022-10-30T17:50:48;9.20;76.50
67557;DHT22;54387;53.526;49.300;2022-10-30T17:53:21;9.10;76.40